Time,TemperatureF,DewpointF,PressureIn,WindDirection,WindDirectionDegrees,WindSpeedMPH,WindSpeedGustMPH,Humidity,HourlyPrecipIn,Conditions,Clouds,dailyrainin,SoftwareType,DateUTC
2014-01-01 00:01:00,18.5,9.4,30.29,SW,219,0.0,0.0,67,0.00,,---,0.00,VWS V13.01,2014-01-01 05:01:00,
2014-01-01 00:02:00,18.5,9.4,30.29,SW,219,0.0,0.0,67,0.00,,---,0.00,VWS V13.01,2014-01-01 05:02:00,
2014-01-01 00:03:00,18.5,9.1,30.29,SW,219,0.0,0.0,66,0.00,,---,0.00,VWS V13.01,2014-01-01 05:03:00,
2014-01-01 00:07:00,18.7,8.9,30.29,SW,219,0.0,0.0,65,0.00,,---,0.00,VWS V13.01,2014-01-01 05:07:00,
2014-01-01 00:12:00,18.7,8.9,30.29,SW,220,2.7,4.0,65,0.00,,---,0.00,VWS V13.01,2014-01-01 05:12:00,
2014-01-01 00:17:00,18.7,8.9,30.29,West,280,2.7,4.0,65,0.00,,---,0.00,VWS V13.01,2014-01-01 05:17:00,
2014-01-01 00:20:00,18.7,8.5,30.29,WNW,284,4.0,4.5,64,0.00,,---,0.00,VWS V13.01,2014-01-01 05:20:00,
2014-01-01 00:25:00,18.9,8.7,30.26,NW,305,0.0,0.0,64,0.00,,---,0.00,VWS V13.01,2014-01-01 05:25:00,
2014-01-01 00:30:00,18.7,8.5,30.26,NW,305,0.0,3.1,64,0.00,,---,0.00,VWS V13.01,2014-01-01 05:30:00,
2014-01-01 00:35:00,18.7,8.2,30.26,NW,305,2.7,3.6,63,0.00,,---,0.00,VWS V13.01,2014-01-01 05:35:00,
2014-01-01 00:41:00,18.9,8.4,30.26,NW,305,2.7,3.6,63,0.00,,---,0.00,VWS V13.01,2014-01-01 05:41:00,
2014-01-01 00:44:00,18.9,8.4,30.26,NW,305,3.1,4.0,63,0.00,,---,0.00,VWS V13.01,2014-01-01 05:44:00,
2014-01-01 00:49:00,18.9,8.0,30.26,NW,305,3.6,4.0,62,0.00,,---,0.00,VWS V13.01,2014-01-01 05:49:00,
2014-01-01 00:54:00,18.9,8.0,30.26,NW,305,3.1,4.5,62,0.00,,---,0.00,VWS V13.01,2014-01-01 05:54:00,
2014-01-01 00:59:00,18.9,7.7,30.26,NW,305,3.1,4.0,61,0.00,,---,0.00,VWS V13.01,2014-01-01 05:59:00,
2014-01-01 01:04:00,18.9,7.7,30.26,NW,305,4.5,4.5,61,0.00,,---,0.00,VWS V13.01,2014-01-01 06:04:00,
2014-01-01 01:09:00,18.9,7.7,30.26,NW,305,2.7,4.9,61,0.00,,---,0.00,VWS V13.01,2014-01-01 06:09:00,
2014-01-01 01:15:00,18.9,7.7,30.26,NW,305,0.0,0.0,61,0.00,,---,0.00,VWS V13.01,2014-01-01 06:15:00,
2014-01-01 01:20:00,18.7,7.5,30.26,NW,305,0.0,0.0,61,0.00,,---,0.00,VWS V13.01,2014-01-01 06:20:00,
2014-01-01 01:25:00,18.7,7.5,30.26,NW,305,0.0,2.7,61,0.00,,---,0.00,VWS V13.01,2014-01-01 06:25:00,
2014-01-01 01:30:00,18.7,7.5,30.26,NW,305,0.0,0.0,61,0.00,,---,0.00,VWS V13.01,2014-01-01 06:30:00,
2014-01-01 01:32:00,18.7,7.5,30.26,NW,305,0.0,0.0,61,0.00,,---,0.00,VWS V13.01,2014-01-01 06:32:00,
2014-01-01 01:37:00,18.7,7.5,30.26,NW,305,0.0,2.7,61,0.00,,---,0.00,VWS V13.01,2014-01-01 06:37:00,
2014-01-01 01:42:00,18.9,7.7,30.26,NW,305,0.0,0.0,61,0.00,,---,0.00,VWS V13.01,2014-01-01 06:42:00,
2014-01-01 01:47:00,19.0,7.8,30.26,NW,305,0.0,0.0,61,0.00,,---,0.00,VWS V13.01,2014-01-01 06:47:00,
2014-01-01 01:52:00,19.0,7.8,30.26,NW,305,0.0,0.0,61,0.00,,---,0.00,VWS V13.01,2014-01-01 06:52:00,
2014-01-01 01:57:00,18.9,7.7,30.26,NW,305,0.0,3.6,61,0.00,,---,0.00,VWS V13.01,2014-01-01 06:57:00,
2014-01-01 02:02:00,19.0,7.8,30.26,NW,305,0.0,4.0,61,0.00,,---,0.00,VWS V13.01,2014-01-01 07:02:00,
2014-01-01 02:05:00,19.0,7.8,30.26,NW,305,0.0,3.1,61,0.00,,---,0.00,VWS V13.01,2014-01-01 07:05:00,
2014-01-01 02:10:00,19.0,7.8,30.26,NW,305,0.0,0.0,61,0.00,,---,0.00,VWS V13.01,2014-01-01 07:10:00,
2014-01-01 02:15:00,19.0,7.8,30.26,NW,305,0.0,0.0,61,0.00,,---,0.00,VWS V13.01,2014-01-01 07:15:00,
2014-01-01 02:20:00,19.0,7.8,30.26,NW,305,0.0,0.0,61,0.00,,---,0.00,VWS V13.01,2014-01-01 07:20:00,
2014-01-01 02:24:00,19.0,7.8,30.26,NW,305,0.0,0.0,61,0.00,,---,0.00,VWS V13.01,2014-01-01 07:24:00,
2014-01-01 02:30:00,19.0,7.8,30.26,NW,305,0.0,0.0,61,0.00,,---,0.00,VWS V13.01,2014-01-01 07:30:00,
2014-01-01 02:35:00,19.2,8.0,30.26,NW,305,0.0,0.0,61,0.00,,---,0.00,VWS V13.01,2014-01-01 07:35:00,
2014-01-01 02:40:00,19.0,7.8,30.26,NW,305,2.7,3.1,61,0.00,,---,0.00,VWS V13.01,2014-01-01 07:40:00,
2014-01-01 02:45:00,19.2,8.0,30.26,NW,305,0.0,0.0,61,0.00,,---,0.00,VWS V13.01,2014-01-01 07:45:00,
2014-01-01 02:50:00,19.4,8.2,30.26,NW,305,0.0,0.0,61,0.00,,---,0.00,VWS V13.01,2014-01-01 07:50:00,
2014-01-01 02:55:00,19.4,8.2,30.26,NW,305,0.0,0.0,61,0.00,,---,0.00,VWS V13.01,2014-01-01 07:55:00,
2014-01-01 03:00:00,19.4,7.8,30.26,NW,305,3.6,4.0,60,0.00,,---,0.00,VWS V13.01,2014-01-01 08:00:00,
2014-01-01 03:01:00,19.4,7.8,30.26,NW,305,3.1,3.6,60,0.00,,---,0.00,VWS V13.01,2014-01-01 08:01:00,
2014-01-01 03:06:00,19.4,7.8,30.26,NW,305,0.0,0.0,60,0.00,,---,0.00,VWS V13.01,2014-01-01 08:06:00,
2014-01-01 03:11:00,19.4,7.8,30.26,NW,305,2.7,4.5,60,0.00,,---,0.00,VWS V13.01,2014-01-01 08:11:00,
2014-01-01 03:16:00,19.2,7.6,30.26,NW,305,0.0,0.0,60,0.00,,---,0.00,VWS V13.01,2014-01-01 08:16:00,
2014-01-01 03:21:00,19.4,7.8,30.26,NW,305,3.6,3.6,60,0.00,,---,0.00,VWS V13.01,2014-01-01 08:21:00,
2014-01-01 03:27:00,19.6,8.0,30.26,NW,305,3.1,3.6,60,0.00,,---,0.00,VWS V13.01,2014-01-01 08:27:00,
2014-01-01 03:32:00,19.6,8.0,30.26,NW,305,0.0,2.7,60,0.00,,---,0.00,VWS V13.01,2014-01-01 08:32:00,
2014-01-01 03:37:00,19.6,8.0,30.26,NW,305,2.7,2.7,60,0.00,,---,0.00,VWS V13.01,2014-01-01 08:37:00,
2014-01-01 03:38:00,19.6,8.0,30.26,NW,305,0.0,3.1,60,0.00,,---,0.00,VWS V13.01,2014-01-01 08:38:00,
2014-01-01 03:43:00,19.6,8.3,30.26,NW,316,3.1,4.0,61,0.00,,---,0.00,VWS V13.01,2014-01-01 08:43:00,
2014-01-01 03:48:00,19.8,8.5,30.26,NW,316,2.7,3.6,61,0.00,,---,0.00,VWS V13.01,2014-01-01 08:48:00,
2014-01-01 03:53:00,19.8,8.1,30.26,NW,316,3.6,3.6,60,0.00,,---,0.00,VWS V13.01,2014-01-01 08:53:00,
2014-01-01 03:58:00,19.8,8.5,30.26,NW,316,4.5,4.9,61,0.00,,---,0.00,VWS V13.01,2014-01-01 08:58:00,
2014-01-01 04:03:00,19.8,8.1,30.26,NW,316,4.5,5.4,60,0.00,,---,0.00,VWS V13.01,2014-01-01 09:03:00,
2014-01-01 04:08:00,19.8,8.1,30.26,NW,316,4.5,4.9,60,0.00,,---,0.00,VWS V13.01,2014-01-01 09:08:00,
2014-01-01 04:13:00,19.8,8.1,30.26,North,351,4.9,5.4,60,0.00,,---,0.00,VWS V13.01,2014-01-01 09:13:00,
2014-01-01 04:18:00,19.8,8.1,30.26,North,351,4.5,4.9,60,0.00,,---,0.00,VWS V13.01,2014-01-01 09:18:00,
2014-01-01 04:23:00,19.8,8.1,30.26,NNW,342,3.6,4.0,60,0.00,,---,0.00,VWS V13.01,2014-01-01 09:23:00,
2014-01-01 04:28:00,19.6,8.0,30.26,NNW,343,3.1,4.9,60,0.00,,---,0.00,VWS V13.01,2014-01-01 09:28:00,
2014-01-01 04:34:00,19.6,8.0,30.26,North,356,3.6,6.3,60,0.00,,---,0.00,VWS V13.01,2014-01-01 09:34:00,
2014-01-01 04:39:00,19.6,8.0,30.26,NNW,343,4.0,4.9,60,0.00,,---,0.00,VWS V13.01,2014-01-01 09:39:00,
2014-01-01 04:44:00,19.6,8.0,30.26,NNW,342,4.9,5.4,60,0.00,,---,0.00,VWS V13.01,2014-01-01 09:44:00,
2014-01-01 04:49:00,19.8,8.1,30.26,North,351,3.6,5.8,60,0.00,,---,0.00,VWS V13.01,2014-01-01 09:49:00,
2014-01-01 04:54:00,19.8,8.1,30.26,North,11,0.0,3.6,60,0.00,,---,0.00,VWS V13.01,2014-01-01 09:54:00,
2014-01-01 04:59:00,19.9,8.3,30.26,North,9,4.5,4.5,60,0.00,,---,0.00,VWS V13.01,2014-01-01 09:59:00,
2014-01-01 05:04:00,20.1,8.5,30.26,North,5,4.9,4.9,60,0.00,,---,0.00,VWS V13.01,2014-01-01 10:04:00,
2014-01-01 05:09:00,20.3,8.6,30.26,North,6,3.1,4.9,60,0.00,,---,0.00,VWS V13.01,2014-01-01 10:09:00,
2014-01-01 05:14:00,20.5,8.8,30.26,North,6,3.6,4.9,60,0.00,,---,0.00,VWS V13.01,2014-01-01 10:14:00,
2014-01-01 05:20:00,20.8,8.8,30.26,NNW,340,3.6,4.5,59,0.00,,---,0.00,VWS V13.01,2014-01-01 10:20:00,
2014-01-01 05:25:00,20.8,8.8,30.26,North,351,4.0,4.9,59,0.00,,---,0.00,VWS V13.01,2014-01-01 10:25:00,
2014-01-01 05:30:00,21.0,8.6,30.26,North,356,4.5,5.4,58,0.00,,---,0.00,VWS V13.01,2014-01-01 10:30:00,
2014-01-01 05:36:00,21.0,8.6,30.26,NNE,13,3.1,6.7,58,0.00,,---,0.00,VWS V13.01,2014-01-01 10:36:00,
2014-01-01 05:41:00,20.8,8.4,30.26,North,1,3.1,5.8,58,0.00,,---,0.00,VWS V13.01,2014-01-01 10:41:00,
2014-01-01 05:46:00,21.0,8.2,30.26,North,351,4.5,7.4,57,0.00,,---,0.00,VWS V13.01,2014-01-01 10:46:00,
2014-01-01 05:51:00,21.2,8.4,30.26,North,351,4.0,4.9,57,0.00,,---,0.00,VWS V13.01,2014-01-01 10:51:00,
2014-01-01 05:56:00,21.4,8.1,30.26,NNW,347,4.9,5.8,56,0.00,,---,0.00,VWS V13.01,2014-01-01 10:56:00,
2014-01-01 06:01:00,21.4,7.7,30.26,North,351,5.8,5.8,55,0.00,,---,0.00,VWS V13.01,2014-01-01 11:01:00,
2014-01-01 06:06:00,21.9,8.6,30.26,North,356,3.6,6.3,56,0.00,,---,0.00,VWS V13.01,2014-01-01 11:06:00,
2014-01-01 06:11:00,22.5,9.1,30.26,North,356,3.6,4.5,56,0.00,,---,0.00,VWS V13.01,2014-01-01 11:11:00,
2014-01-01 06:16:00,22.8,9.5,30.26,North,0,6.7,6.7,56,0.00,,---,0.00,VWS V13.01,2014-01-01 11:16:00,
2014-01-01 06:21:00,23.2,9.8,30.26,North,0,6.9,6.9,56,0.00,,---,0.00,VWS V13.01,2014-01-01 11:21:00,
2014-01-01 06:26:00,23.5,9.8,30.26,North,356,3.6,6.3,55,0.00,,---,0.00,VWS V13.01,2014-01-01 11:26:00,
2014-01-01 06:31:00,23.7,9.5,30.26,NNE,20,2.7,4.5,54,0.00,,---,0.00,VWS V13.01,2014-01-01 11:31:00,
2014-01-01 06:36:00,23.7,9.5,30.26,NNW,346,4.9,6.9,54,0.00,,---,0.00,VWS V13.01,2014-01-01 11:36:00,
2014-01-01 06:41:00,23.7,9.5,30.26,North,1,5.4,6.7,54,0.00,,---,0.00,VWS V13.01,2014-01-01 11:41:00,
2014-01-01 06:46:00,24.1,9.4,30.26,NNW,339,4.5,6.3,53,0.00,,---,0.00,VWS V13.01,2014-01-01 11:46:00,
2014-01-01 06:51:00,23.9,9.3,30.26,NNE,23,4.5,6.9,53,0.00,,---,0.00,VWS V13.01,2014-01-01 11:51:00,
2014-01-01 06:57:00,24.3,9.6,30.26,NNW,345,5.4,6.7,53,0.00,,---,0.00,VWS V13.01,2014-01-01 11:57:00,
2014-01-01 07:02:00,24.3,9.2,30.26,NNW,342,5.4,6.3,52,0.00,,---,0.00,VWS V13.01,2014-01-01 12:02:00,
2014-01-01 07:08:00,24.3,9.2,30.26,NNW,343,4.0,6.7,52,0.00,,---,0.00,VWS V13.01,2014-01-01 12:08:00,
2014-01-01 07:13:00,24.1,8.6,30.26,North,5,4.0,5.4,51,0.00,,---,0.00,VWS V13.01,2014-01-01 12:13:00,
2014-01-01 07:18:00,23.9,8.9,30.26,North,3,5.8,6.3,52,0.00,,---,0.00,VWS V13.01,2014-01-01 12:18:00,
2014-01-01 07:23:00,23.9,8.9,30.26,North,0,6.7,8.3,52,0.00,,---,0.00,VWS V13.01,2014-01-01 12:23:00,
2014-01-01 07:28:00,23.9,8.9,30.26,North,356,8.3,9.6,52,0.00,,---,0.00,VWS V13.01,2014-01-01 12:28:00,
2014-01-01 07:33:00,23.9,8.9,30.26,North,351,6.7,6.9,52,0.00,,---,0.00,VWS V13.01,2014-01-01 12:33:00,
2014-01-01 07:38:00,23.5,8.1,30.26,NNW,342,5.4,7.4,51,0.00,,---,0.00,VWS V13.01,2014-01-01 12:38:00,
2014-01-01 07:44:00,23.7,8.7,30.26,North,4,4.5,7.8,52,0.00,,---,0.00,VWS V13.01,2014-01-01 12:44:00,
2014-01-01 07:49:00,23.9,8.9,30.26,NNW,340,4.0,7.8,52,0.00,,---,0.00,VWS V13.01,2014-01-01 12:49:00,
2014-01-01 07:55:00,23.9,8.9,30.26,North,8,4.5,5.4,52,0.00,,---,0.00,VWS V13.01,2014-01-01 12:55:00,
2014-01-01 08:00:00,23.5,8.1,30.26,North,6,5.8,7.4,51,0.00,,---,0.00,VWS V13.01,2014-01-01 13:00:00,
2014-01-01 08:05:00,23.5,8.5,30.26,North,351,6.3,8.3,52,0.00,,---,0.00,VWS V13.01,2014-01-01 13:05:00,
2014-01-01 08:10:00,23.4,7.9,30.26,North,356,3.6,5.8,51,0.00,,---,0.00,VWS V13.01,2014-01-01 13:10:00,
2014-01-01 08:15:00,23.4,8.4,30.26,NNW,341,3.6,8.7,52,0.00,,---,0.00,VWS V13.01,2014-01-01 13:15:00,
2014-01-01 08:20:00,23.0,7.6,30.26,North,351,6.9,10.1,51,0.00,,---,0.00,VWS V13.01,2014-01-01 13:20:00,
2014-01-01 08:25:00,22.8,7.4,30.26,NNW,329,4.5,8.3,51,0.00,,---,0.00,VWS V13.01,2014-01-01 13:25:00,
2014-01-01 08:30:00,23.0,8.0,30.26,NNW,336,5.4,7.4,52,0.00,,---,0.00,VWS V13.01,2014-01-01 13:30:00,
2014-01-01 08:35:00,23.0,7.6,30.26,North,351,7.8,9.6,51,0.00,,---,0.00,VWS V13.01,2014-01-01 13:35:00,
2014-01-01 08:40:00,23.0,7.6,30.26,NNW,345,6.9,7.8,51,0.00,,---,0.00,VWS V13.01,2014-01-01 13:40:00,
2014-01-01 08:45:00,23.0,7.6,30.26,North,351,6.3,6.3,51,0.00,,---,0.00,VWS V13.01,2014-01-01 13:45:00,
2014-01-01 08:50:00,22.8,7.0,30.26,North,356,5.4,6.3,50,0.00,,---,0.00,VWS V13.01,2014-01-01 13:50:00,
2014-01-01 08:55:00,23.0,7.1,30.26,North,3,6.9,9.6,50,0.00,,---,0.00,VWS V13.01,2014-01-01 13:55:00,
2014-01-01 09:00:00,23.2,7.8,30.26,North,351,8.7,8.7,51,0.00,,---,0.00,VWS V13.01,2014-01-01 14:00:00,
2014-01-01 09:05:00,23.0,7.1,30.26,NNW,346,7.8,9.6,50,0.00,,---,0.00,VWS V13.01,2014-01-01 14:05:00,
2014-01-01 09:10:00,23.2,7.3,30.26,North,356,9.2,9.2,50,0.00,,---,0.00,VWS V13.01,2014-01-01 14:10:00,
2014-01-01 09:15:00,23.0,6.7,30.26,NNE,25,5.4,7.8,49,0.00,,---,0.00,VWS V13.01,2014-01-01 14:15:00,
2014-01-01 09:20:00,23.0,6.7,30.26,NNW,346,4.9,10.5,49,0.00,,---,0.00,VWS V13.01,2014-01-01 14:20:00,
2014-01-01 09:25:00,23.4,7.5,30.26,NNE,27,6.9,7.8,50,0.00,,---,0.00,VWS V13.01,2014-01-01 14:25:00,
2014-01-01 09:30:00,23.4,7.0,30.26,NNE,15,7.4,11.0,49,0.00,,---,0.00,VWS V13.01,2014-01-01 14:30:00,
2014-01-01 09:35:00,23.7,6.9,30.26,North,356,5.8,8.7,48,0.00,,---,0.00,VWS V13.01,2014-01-01 14:35:00,
2014-01-01 09:40:00,23.9,6.6,30.26,North,351,8.7,8.7,47,0.00,,---,0.00,VWS V13.01,2014-01-01 14:40:00,
2014-01-01 09:45:00,23.9,7.1,30.26,North,8,6.7,8.3,48,0.00,,---,0.00,VWS V13.01,2014-01-01 14:45:00,
2014-01-01 09:50:00,24.1,6.8,30.26,NNE,12,11.0,11.0,47,0.00,,---,0.00,VWS V13.01,2014-01-01 14:50:00,
2014-01-01 09:56:00,24.1,6.8,30.26,NNW,341,7.4,10.1,47,0.00,,---,0.00,VWS V13.01,2014-01-01 14:56:00,
2014-01-01 10:01:00,24.1,6.8,30.26,NE,34,6.7,9.6,47,0.00,,---,0.00,VWS V13.01,2014-01-01 15:01:00,
2014-01-01 10:06:00,24.1,6.8,30.26,North,356,4.5,7.8,47,0.00,,---,0.00,VWS V13.01,2014-01-01 15:06:00,
2014-01-01 10:11:00,24.4,7.1,30.26,NNW,341,5.4,6.9,47,0.00,,---,0.00,VWS V13.01,2014-01-01 15:11:00,
2014-01-01 10:16:00,24.6,6.8,30.26,NNW,331,4.0,6.3,46,0.00,,---,0.00,VWS V13.01,2014-01-01 15:16:00,
2014-01-01 10:21:00,25.0,7.1,30.26,NNE,21,6.9,6.9,46,0.00,,---,0.00,VWS V13.01,2014-01-01 15:21:00,
2014-01-01 10:26:00,25.2,7.3,30.29,NNE,15,8.7,10.5,46,0.00,,---,0.00,VWS V13.01,2014-01-01 15:26:00,
2014-01-01 10:31:00,25.5,7.6,30.29,NNW,347,4.5,5.4,46,0.00,,---,0.00,VWS V13.01,2014-01-01 15:31:00,
2014-01-01 10:36:00,25.2,6.8,30.29,NNW,345,6.3,8.7,45,0.00,,---,0.00,VWS V13.01,2014-01-01 15:36:00,
2014-01-01 10:42:00,25.2,6.8,30.29,NNW,341,6.7,9.6,45,0.00,,---,0.00,VWS V13.01,2014-01-01 15:42:00,
2014-01-01 10:47:00,25.2,6.8,30.29,NE,42,7.4,7.4,45,0.00,,---,0.00,VWS V13.01,2014-01-01 15:47:00,
2014-01-01 10:52:00,25.0,6.7,30.29,North,3,6.9,8.3,45,0.00,,---,0.00,VWS V13.01,2014-01-01 15:52:00,
2014-01-01 10:57:00,25.2,6.8,30.29,NNW,335,6.3,8.3,45,0.00,,---,0.00,VWS V13.01,2014-01-01 15:57:00,
2014-01-01 11:02:00,25.3,7.0,30.29,North,356,6.9,11.0,45,0.00,,---,0.00,VWS V13.01,2014-01-01 16:02:00,
2014-01-01 11:07:00,25.5,6.7,30.29,North,4,6.3,7.8,44,0.00,,---,0.00,VWS V13.01,2014-01-01 16:07:00,
2014-01-01 11:12:00,25.3,6.5,30.29,North,351,5.4,6.7,44,0.00,,---,0.00,VWS V13.01,2014-01-01 16:12:00,
2014-01-01 11:18:00,25.3,6.5,30.29,NNW,338,9.2,9.2,44,0.00,,---,0.00,VWS V13.01,2014-01-01 16:18:00,
2014-01-01 11:23:00,25.5,7.2,30.29,NNW,335,4.9,7.8,45,0.00,,---,0.00,VWS V13.01,2014-01-01 16:23:00,
2014-01-01 11:28:00,25.7,6.8,30.29,NNW,340,4.0,6.7,44,0.00,,---,0.00,VWS V13.01,2014-01-01 16:28:00,
2014-01-01 11:33:00,25.9,7.0,30.29,NNW,347,7.4,11.2,44,0.00,,---,0.00,VWS V13.01,2014-01-01 16:33:00,
2014-01-01 11:38:00,26.2,7.3,30.29,NNE,21,9.2,10.1,44,0.00,,---,0.00,VWS V13.01,2014-01-01 16:38:00,
2014-01-01 11:43:00,26.4,7.5,30.29,North,356,10.1,10.1,44,0.00,,---,0.00,VWS V13.01,2014-01-01 16:43:00,
2014-01-01 11:49:00,26.8,7.8,30.29,NNE,15,5.4,11.0,44,0.00,,---,0.00,VWS V13.01,2014-01-01 16:49:00,
2014-01-01 11:54:00,27.0,7.5,30.26,NNW,345,6.7,8.7,43,0.00,,---,0.00,VWS V13.01,2014-01-01 16:54:00,
2014-01-01 11:59:00,27.1,7.6,30.26,North,351,7.8,8.3,43,0.00,,---,0.00,VWS V13.01,2014-01-01 16:59:00,
2014-01-01 12:04:00,27.7,7.6,30.26,North,6,6.3,8.3,42,0.00,,---,0.00,VWS V13.01,2014-01-01 17:04:00,
2014-01-01 12:10:00,27.5,7.4,30.26,North,351,6.9,11.2,42,0.00,,---,0.00,VWS V13.01,2014-01-01 17:10:00,
2014-01-01 12:15:00,28.0,7.9,30.26,NNW,347,6.9,7.8,42,0.00,,---,0.00,VWS V13.01,2014-01-01 17:15:00,
2014-01-01 12:20:00,27.3,7.3,30.26,North,1,7.4,11.6,42,0.00,,---,0.00,VWS V13.01,2014-01-01 17:20:00,
2014-01-01 12:25:00,28.0,7.9,30.26,NNW,347,9.2,9.2,42,0.00,,---,0.00,VWS V13.01,2014-01-01 17:25:00,
2014-01-01 12:30:00,28.0,7.9,30.26,North,356,9.6,12.5,42,0.00,,---,0.00,VWS V13.01,2014-01-01 17:30:00,
2014-01-01 12:35:00,28.2,8.1,30.26,North,351,7.8,10.5,42,0.00,,---,0.00,VWS V13.01,2014-01-01 17:35:00,
2014-01-01 12:40:00,28.9,8.2,30.23,NNE,14,10.1,10.5,41,0.00,,---,0.00,VWS V13.01,2014-01-01 17:40:00,
2014-01-01 12:45:00,28.6,7.9,30.23,North,356,8.3,10.5,41,0.00,,---,0.00,VWS V13.01,2014-01-01 17:45:00,
2014-01-01 12:50:00,28.8,8.0,30.23,North,351,9.6,9.6,41,0.00,,---,0.00,VWS V13.01,2014-01-01 17:50:00,
2014-01-01 12:55:00,29.3,8.5,30.23,North,351,9.6,10.1,41,0.00,,---,0.00,VWS V13.01,2014-01-01 17:55:00,
2014-01-01 13:00:00,29.1,8.4,30.23,NW,325,7.4,11.6,41,0.00,,---,0.00,VWS V13.01,2014-01-01 18:00:00,
2014-01-01 13:05:00,28.9,8.2,30.23,NNW,344,6.7,8.3,41,0.00,,---,0.00,VWS V13.01,2014-01-01 18:05:00,
2014-01-01 13:10:00,28.8,8.0,30.23,North,351,6.9,7.4,41,0.00,,---,0.00,VWS V13.01,2014-01-01 18:10:00,
2014-01-01 13:15:00,28.6,7.9,30.23,North,3,4.9,7.8,41,0.00,,---,0.00,VWS V13.01,2014-01-01 18:15:00,
2014-01-01 13:20:00,28.0,7.4,30.23,NNE,14,12.1,12.1,41,0.00,,---,0.00,VWS V13.01,2014-01-01 18:20:00,
2014-01-01 13:25:00,28.2,7.6,30.23,NNW,340,5.4,6.7,41,0.00,,---,0.00,VWS V13.01,2014-01-01 18:25:00,
2014-01-01 13:30:00,27.7,7.1,30.23,NNE,14,11.0,11.0,41,0.00,,---,0.00,VWS V13.01,2014-01-01 18:30:00,
2014-01-01 13:35:00,27.7,7.1,30.23,North,10,6.9,9.2,41,0.00,,---,0.00,VWS V13.01,2014-01-01 18:35:00,
2014-01-01 13:40:00,28.2,7.6,30.23,NNW,343,6.9,7.4,41,0.00,,---,0.00,VWS V13.01,2014-01-01 18:40:00,
2014-01-01 13:45:00,28.2,7.6,30.23,NNW,340,5.8,6.9,41,0.00,,---,0.00,VWS V13.01,2014-01-01 18:45:00,
2014-01-01 13:50:00,27.9,7.2,30.23,NNE,12,6.9,9.6,41,0.00,,---,0.00,VWS V13.01,2014-01-01 18:50:00,
2014-01-01 13:55:00,27.3,6.7,30.20,North,351,9.2,11.6,41,0.00,,---,0.00,VWS V13.01,2014-01-01 18:55:00,
2014-01-01 14:00:00,26.8,6.8,30.20,NNW,340,6.7,8.7,42,0.00,,---,0.00,VWS V13.01,2014-01-01 19:00:00,
2014-01-01 14:05:00,26.4,6.4,30.20,North,351,9.6,10.5,42,0.00,,---,0.00,VWS V13.01,2014-01-01 19:05:00,
2014-01-01 14:10:00,26.2,6.3,30.20,North,7,9.6,10.1,42,0.00,,---,0.00,VWS V13.01,2014-01-01 19:10:00,
2014-01-01 14:15:00,26.4,7.0,30.20,NNE,15,6.3,7.8,43,0.00,,---,0.00,VWS V13.01,2014-01-01 19:15:00,
2014-01-01 14:20:00,26.1,6.6,30.20,NNW,342,5.4,7.4,43,0.00,,---,0.00,VWS V13.01,2014-01-01 19:20:00,
2014-01-01 14:25:00,26.2,6.8,30.20,North,351,9.6,10.5,43,0.00,,---,0.00,VWS V13.01,2014-01-01 19:25:00,
2014-01-01 14:31:00,26.2,6.8,30.20,NNW,337,7.4,7.4,43,0.00,,---,0.00,VWS V13.01,2014-01-01 19:31:00,
2014-01-01 14:36:00,26.2,6.8,30.20,North,356,5.8,6.9,43,0.00,,---,0.00,VWS V13.01,2014-01-01 19:36:00,
2014-01-01 14:42:00,26.1,6.6,30.20,North,3,6.3,6.9,43,0.00,,---,0.00,VWS V13.01,2014-01-01 19:42:00,
2014-01-01 14:47:00,26.1,6.6,30.20,NNE,16,5.4,9.2,43,0.00,,---,0.00,VWS V13.01,2014-01-01 19:47:00,
2014-01-01 14:52:00,25.9,6.0,30.20,North,7,7.8,9.2,42,0.00,,---,0.00,VWS V13.01,2014-01-01 19:52:00,
2014-01-01 14:58:00,25.5,6.2,30.20,NNW,333,4.9,8.7,43,0.00,,---,0.00,VWS V13.01,2014-01-01 19:58:00,
2014-01-01 15:03:00,25.9,6.5,30.20,NNW,339,4.5,9.6,43,0.00,,---,0.00,VWS V13.01,2014-01-01 20:03:00,
2014-01-01 15:08:00,25.5,6.2,30.20,NNW,343,4.5,8.3,43,0.00,,---,0.00,VWS V13.01,2014-01-01 20:08:00,
2014-01-01 15:13:00,25.7,6.8,30.20,NNW,342,5.4,8.7,44,0.00,,---,0.00,VWS V13.01,2014-01-01 20:13:00,
2014-01-01 15:18:00,25.5,6.7,30.20,NNW,345,4.9,7.4,44,0.00,,---,0.00,VWS V13.01,2014-01-01 20:18:00,
2014-01-01 15:24:00,25.3,6.5,30.20,NNW,337,5.4,10.5,44,0.00,,---,0.00,VWS V13.01,2014-01-01 20:24:00,
2014-01-01 15:29:00,25.0,6.2,30.20,North,356,8.3,9.6,44,0.00,,---,0.00,VWS V13.01,2014-01-01 20:29:00,
2014-01-01 15:34:00,25.0,6.2,30.20,North,5,6.7,9.2,44,0.00,,---,0.00,VWS V13.01,2014-01-01 20:34:00,
2014-01-01 15:39:00,25.0,6.2,30.20,NE,35,7.8,7.8,44,0.00,,---,0.00,VWS V13.01,2014-01-01 20:39:00,
2014-01-01 15:44:00,25.2,6.3,30.20,North,351,8.3,8.7,44,0.00,,---,0.00,VWS V13.01,2014-01-01 20:44:00,
2014-01-01 15:49:00,24.8,6.0,30.20,North,351,6.7,8.7,44,0.00,,---,0.00,VWS V13.01,2014-01-01 20:49:00,
2014-01-01 15:54:00,24.8,6.5,30.20,North,351,5.4,8.3,45,0.00,,---,0.00,VWS V13.01,2014-01-01 20:54:00,
2014-01-01 15:59:00,24.4,5.7,30.20,NNW,335,6.9,9.6,44,0.00,,---,0.00,VWS V13.01,2014-01-01 20:59:00,
2014-01-01 16:04:00,24.4,5.7,30.20,NNE,20,11.0,11.0,44,0.00,,---,0.00,VWS V13.01,2014-01-01 21:04:00,
2014-01-01 16:09:00,23.9,5.7,30.20,NNW,342,8.3,9.2,45,0.00,,---,0.00,VWS V13.01,2014-01-01 21:09:00,
2014-01-01 16:14:00,23.7,6.0,30.20,North,356,7.4,7.8,46,0.00,,---,0.00,VWS V13.01,2014-01-01 21:14:00,
2014-01-01 16:20:00,23.7,6.0,30.20,North,8,7.8,7.8,46,0.00,,---,0.00,VWS V13.01,2014-01-01 21:20:00,
2014-01-01 16:25:00,23.4,5.7,30.20,NNE,12,7.8,8.3,46,0.00,,---,0.00,VWS V13.01,2014-01-01 21:25:00,
2014-01-01 16:30:00,23.2,5.5,30.20,North,351,6.3,6.9,46,0.00,,---,0.00,VWS V13.01,2014-01-01 21:30:00,
2014-01-01 16:35:00,23.0,5.3,30.20,North,5,4.9,8.7,46,0.00,,---,0.00,VWS V13.01,2014-01-01 21:35:00,
2014-01-01 16:40:00,22.8,5.2,30.20,North,7,6.7,8.3,46,0.00,,---,0.00,VWS V13.01,2014-01-01 21:40:00,
2014-01-01 16:45:00,22.8,5.6,30.20,NNW,344,3.6,6.9,47,0.00,,---,0.00,VWS V13.01,2014-01-01 21:45:00,
2014-01-01 16:50:00,22.3,5.1,30.20,NNE,26,9.6,10.5,47,0.00,,---,0.00,VWS V13.01,2014-01-01 21:50:00,
2014-01-01 16:55:00,22.6,5.9,30.20,North,7,7.8,11.0,48,0.00,,---,0.00,VWS V13.01,2014-01-01 21:55:00,
2014-01-01 17:00:00,22.3,5.1,30.20,North,351,7.4,7.4,47,0.00,,---,0.00,VWS V13.01,2014-01-01 22:00:00,
2014-01-01 17:05:00,22.3,5.6,30.20,North,351,5.4,10.5,48,0.00,,---,0.00,VWS V13.01,2014-01-01 22:05:00,
2014-01-01 17:10:00,22.1,5.4,30.20,NNW,343,7.8,9.2,48,0.00,,---,0.00,VWS V13.01,2014-01-01 22:10:00,
2014-01-01 17:16:00,22.1,5.9,30.20,North,9,6.3,10.1,49,0.00,,---,0.00,VWS V13.01,2014-01-01 22:16:00,
2014-01-01 17:21:00,21.9,5.7,30.20,North,9,6.3,6.3,49,0.00,,---,0.00,VWS V13.01,2014-01-01 22:21:00,
2014-01-01 17:26:00,21.7,5.5,30.20,NNW,327,4.0,5.8,49,0.00,,---,0.00,VWS V13.01,2014-01-01 22:26:00,
2014-01-01 17:31:00,21.6,5.4,30.20,NNW,342,6.7,10.1,49,0.00,,---,0.00,VWS V13.01,2014-01-01 22:31:00,
2014-01-01 17:36:00,21.7,6.0,30.20,North,7,8.7,9.6,50,0.00,,---,0.00,VWS V13.01,2014-01-01 22:36:00,
2014-01-01 17:41:00,21.7,5.5,30.20,North,356,7.4,8.7,49,0.00,,---,0.00,VWS V13.01,2014-01-01 22:41:00,
2014-01-01 17:46:00,21.7,5.5,30.20,NNW,345,6.9,8.3,49,0.00,,---,0.00,VWS V13.01,2014-01-01 22:46:00,
2014-01-01 17:51:00,21.4,5.2,30.20,NNW,347,10.1,11.0,49,0.00,,---,0.00,VWS V13.01,2014-01-01 22:51:00,
2014-01-01 17:56:00,21.4,5.6,30.20,North,356,6.7,7.8,50,0.00,,---,0.00,VWS V13.01,2014-01-01 22:56:00,
2014-01-01 18:01:00,21.0,4.9,30.20,NNE,28,6.7,11.2,49,0.00,,---,0.00,VWS V13.01,2014-01-01 23:01:00,
2014-01-01 18:06:00,20.5,3.9,30.20,NNW,333,7.4,7.4,48,0.00,,---,0.00,VWS V13.01,2014-01-01 23:06:00,
2014-01-01 18:11:00,19.9,3.9,30.20,North,356,8.7,10.5,49,0.00,,---,0.00,VWS V13.01,2014-01-01 23:11:00,
2014-01-01 18:16:00,19.8,4.1,30.20,NNW,342,5.8,6.9,50,0.00,,---,0.00,VWS V13.01,2014-01-01 23:16:00,
2014-01-01 18:22:00,19.8,5.0,30.20,North,9,7.8,8.7,52,0.00,,---,0.00,VWS V13.01,2014-01-01 23:22:00,
2014-01-01 18:27:00,19.8,5.0,30.20,NNW,327,6.7,9.2,52,0.00,,---,0.00,VWS V13.01,2014-01-01 23:27:00,
2014-01-01 18:32:00,19.6,4.8,30.20,North,1,6.3,7.8,52,0.00,,---,0.00,VWS V13.01,2014-01-01 23:32:00,
2014-01-01 18:37:00,19.4,4.7,30.20,North,356,7.8,9.6,52,0.00,,---,0.00,VWS V13.01,2014-01-01 23:37:00,
2014-01-01 18:42:00,19.0,4.3,30.20,North,351,7.4,8.3,52,0.00,,---,0.00,VWS V13.01,2014-01-01 23:42:00,
2014-01-01 18:48:00,18.9,4.6,30.20,North,356,8.7,11.0,53,0.00,,---,0.00,VWS V13.01,2014-01-01 23:48:00,
2014-01-01 18:53:00,18.9,4.6,30.20,NW,323,6.3,11.0,53,0.00,,---,0.00,VWS V13.01,2014-01-01 23:53:00,
2014-01-01 18:58:00,18.7,4.4,30.20,NNE,20,12.5,13.9,53,0.00,,---,0.00,VWS V13.01,2014-01-01 23:58:00,
2014-01-01 19:03:00,18.9,5.0,30.20,North,7,6.9,7.8,54,0.00,,---,0.00,VWS V13.01,2014-01-02 00:03:00,
2014-01-01 19:09:00,18.7,4.4,30.20,NNW,331,5.8,8.7,53,0.00,,---,0.00,VWS V13.01,2014-01-02 00:09:00,
2014-01-01 19:14:00,18.5,4.2,30.20,North,0,4.9,5.8,53,0.00,,---,0.00,VWS V13.01,2014-01-02 00:14:00,
2014-01-01 19:19:00,18.3,4.5,30.20,NNE,28,6.3,6.3,54,0.00,,---,0.00,VWS V13.01,2014-01-02 00:19:00,
2014-01-01 19:24:00,18.3,4.5,30.20,North,6,6.3,7.4,54,0.00,,---,0.00,VWS V13.01,2014-01-02 00:24:00,
2014-01-01 19:29:00,18.3,4.5,30.20,NNW,332,4.9,8.3,54,0.00,,---,0.00,VWS V13.01,2014-01-02 00:29:00,
2014-01-01 19:34:00,18.3,4.5,30.20,North,1,5.8,8.3,54,0.00,,---,0.00,VWS V13.01,2014-01-02 00:34:00,
2014-01-01 19:39:00,18.3,4.5,30.20,NNW,332,6.3,7.4,54,0.00,,---,0.00,VWS V13.01,2014-01-02 00:39:00,
2014-01-01 19:44:00,18.3,4.5,30.20,NNW,347,8.3,8.3,54,0.00,,---,0.00,VWS V13.01,2014-01-02 00:44:00,
2014-01-01 19:49:00,18.3,4.5,30.20,NNE,15,8.3,8.3,54,0.00,,---,0.00,VWS V13.01,2014-01-02 00:49:00,
2014-01-01 19:54:00,18.0,4.1,30.20,North,2,6.3,6.9,54,0.00,,---,0.00,VWS V13.01,2014-01-02 00:54:00,
2014-01-01 19:59:00,18.0,4.1,30.20,North,1,6.9,6.9,54,0.00,,---,0.00,VWS V13.01,2014-01-02 00:59:00,
2014-01-01 20:04:00,18.1,4.3,30.20,NNE,15,7.8,7.8,54,0.00,,---,0.00,VWS V13.01,2014-01-02 01:04:00,
2014-01-01 20:09:00,18.3,4.5,30.20,North,8,10.1,11.0,54,0.00,,---,0.00,VWS V13.01,2014-01-02 01:09:00,
2014-01-01 20:14:00,18.1,4.3,30.20,North,351,7.4,12.5,54,0.00,,---,0.00,VWS V13.01,2014-01-02 01:14:00,
2014-01-01 20:19:00,18.1,4.3,30.20,North,351,4.5,7.8,54,0.00,,---,0.00,VWS V13.01,2014-01-02 01:19:00,
2014-01-01 20:24:00,18.1,4.3,30.20,North,5,4.9,8.3,54,0.00,,---,0.00,VWS V13.01,2014-01-02 01:24:00,
2014-01-01 20:29:00,18.0,4.1,30.20,North,6,8.7,8.7,54,0.00,,---,0.00,VWS V13.01,2014-01-02 01:29:00,
2014-01-01 20:34:00,18.1,4.7,30.20,North,4,7.8,9.6,55,0.00,,---,0.00,VWS V13.01,2014-01-02 01:34:00,
2014-01-01 20:40:00,18.0,4.1,30.20,North,5,11.6,11.6,54,0.00,,---,0.00,VWS V13.01,2014-01-02 01:40:00,
2014-01-01 20:45:00,18.1,4.7,30.20,North,3,4.9,7.8,55,0.00,,---,0.00,VWS V13.01,2014-01-02 01:45:00,
2014-01-01 20:50:00,18.0,4.1,30.20,North,356,6.7,8.7,54,0.00,,---,0.00,VWS V13.01,2014-01-02 01:50:00,
2014-01-01 20:55:00,18.0,4.1,30.20,North,351,5.8,8.3,54,0.00,,---,0.00,VWS V13.01,2014-01-02 01:55:00,
2014-01-01 21:00:00,18.0,4.1,30.20,NNE,12,5.8,7.8,54,0.00,,---,0.00,VWS V13.01,2014-01-02 02:00:00,
2014-01-01 21:05:00,18.0,4.1,30.20,NNE,15,7.4,7.4,54,0.00,,---,0.00,VWS V13.01,2014-01-02 02:05:00,
2014-01-01 21:10:00,17.6,3.8,30.17,North,0,7.8,7.8,54,0.00,,---,0.00,VWS V13.01,2014-01-02 02:10:00,
2014-01-01 21:15:00,17.4,3.6,30.17,North,1,8.3,8.3,54,0.00,,---,0.00,VWS V13.01,2014-01-02 02:15:00,
2014-01-01 21:20:00,17.4,3.6,30.17,North,351,5.4,6.7,54,0.00,,---,0.00,VWS V13.01,2014-01-02 02:20:00,
2014-01-01 21:25:00,17.2,3.5,30.17,North,356,6.3,8.3,54,0.00,,---,0.00,VWS V13.01,2014-01-02 02:25:00,
2014-01-01 21:30:00,17.2,3.5,30.17,North,5,6.7,8.7,54,0.00,,---,0.00,VWS V13.01,2014-01-02 02:30:00,
2014-01-01 21:35:00,17.4,4.0,30.17,North,356,6.9,9.2,55,0.00,,---,0.00,VWS V13.01,2014-01-02 02:35:00,
2014-01-01 21:40:00,17.4,4.0,30.17,NNW,345,5.4,8.3,55,0.00,,---,0.00,VWS V13.01,2014-01-02 02:40:00,
2014-01-01 21:45:00,17.4,4.0,30.17,NNW,347,6.9,8.3,55,0.00,,---,0.00,VWS V13.01,2014-01-02 02:45:00,
2014-01-01 21:50:00,17.4,4.0,30.17,North,1,6.3,7.4,55,0.00,,---,0.00,VWS V13.01,2014-01-02 02:50:00,
2014-01-01 21:55:00,17.2,3.9,30.17,North,351,5.4,9.2,55,0.00,,---,0.00,VWS V13.01,2014-01-02 02:55:00,
2014-01-01 22:00:00,17.2,3.5,30.17,North,356,5.8,7.4,54,0.00,,---,0.00,VWS V13.01,2014-01-02 03:00:00,
2014-01-01 22:05:00,17.2,3.5,30.17,North,356,5.8,8.3,54,0.00,,---,0.00,VWS V13.01,2014-01-02 03:05:00,
2014-01-01 22:10:00,17.2,3.9,30.17,NNW,344,6.7,7.4,55,0.00,,---,0.00,VWS V13.01,2014-01-02 03:10:00,
2014-01-01 22:16:00,17.4,4.0,30.17,NNE,29,7.4,7.4,55,0.00,,---,0.00,VWS V13.01,2014-01-02 03:16:00,
2014-01-01 22:22:00,17.4,4.0,30.17,WSW,258,6.9,8.7,55,0.00,,---,0.00,VWS V13.01,2014-01-02 03:22:00,
2014-01-01 22:27:00,17.2,3.9,30.17,North,9,7.8,8.3,55,0.00,,---,0.00,VWS V13.01,2014-01-02 03:27:00,
2014-01-01 22:32:00,17.4,4.0,30.17,North,351,6.7,14.8,55,0.00,,---,0.00,VWS V13.01,2014-01-02 03:32:00,
2014-01-01 22:37:00,17.4,4.0,30.17,NNW,327,6.3,8.3,55,0.00,,---,0.00,VWS V13.01,2014-01-02 03:37:00,
2014-01-01 22:42:00,17.4,4.0,30.17,WNW,293,6.7,8.7,55,0.00,,---,0.00,VWS V13.01,2014-01-02 03:42:00,
2014-01-01 22:47:00,17.2,3.9,30.17,NNW,346,10.5,12.1,55,0.00,,---,0.00,VWS V13.01,2014-01-02 03:47:00,
2014-01-01 22:52:00,17.4,4.0,30.17,NNW,332,5.8,6.9,55,0.00,,---,0.00,VWS V13.01,2014-01-02 03:52:00,
2014-01-01 22:57:00,17.4,4.0,30.17,NNW,332,6.7,8.3,55,0.00,,---,0.00,VWS V13.01,2014-01-02 03:57:00,
2014-01-01 23:02:00,17.4,4.4,30.17,NNE,12,7.4,7.8,56,0.00,,---,0.00,VWS V13.01,2014-01-02 04:02:00,
2014-01-01 23:07:00,17.2,3.9,30.14,NW,313,8.3,8.3,55,0.00,,---,0.00,VWS V13.01,2014-01-02 04:07:00,
2014-01-01 23:12:00,17.2,3.9,30.14,NNE,29,7.4,9.2,55,0.00,,---,0.00,VWS V13.01,2014-01-02 04:12:00,
2014-01-01 23:17:00,16.9,3.9,30.14,NNW,340,4.9,8.7,56,0.00,,---,0.00,VWS V13.01,2014-01-02 04:17:00,
2014-01-01 23:22:00,16.9,3.9,30.14,North,351,7.8,7.8,56,0.00,,---,0.00,VWS V13.01,2014-01-02 04:22:00,
2014-01-01 23:27:00,16.7,3.7,30.14,NNW,330,8.7,11.2,56,0.00,,---,0.00,VWS V13.01,2014-01-02 04:27:00,
2014-01-01 23:32:00,16.7,3.7,30.14,North,10,6.3,9.2,56,0.00,,---,0.00,VWS V13.01,2014-01-02 04:32:00,
2014-01-01 23:37:00,16.5,3.6,30.14,NNW,327,7.8,9.2,56,0.00,,---,0.00,VWS V13.01,2014-01-02 04:37:00,
2014-01-01 23:43:00,16.5,4.0,30.14,NW,314,6.9,8.3,57,0.00,,---,0.00,VWS V13.01,2014-01-02 04:43:00,
2014-01-01 23:48:00,16.5,3.6,30.14,NNW,344,6.9,8.3,56,0.00,,---,0.00,VWS V13.01,2014-01-02 04:48:00,
2014-01-01 23:53:00,16.7,4.1,30.14,North,3,6.7,8.3,57,0.00,,---,0.00,VWS V13.01,2014-01-02 04:53:00,
2014-01-01 23:58:00,16.7,3.7,30.14,NW,315,3.6,9.6,56,0.00,,---,0.00,VWS V13.01,2014-01-02 04:58:00,